createdAt,value
2017-06-10T00:00:47.419Z,99.90
2017-06-10T00:03:14.971Z,99.90
2017-06-10T00:05:42.524Z,99.90
2017-06-10T00:08:10.491Z,99.90
2017-06-10T00:19:18.140Z,99.90
2017-06-10T00:21:46.555Z,99.90
2017-06-10T00:24:14.115Z,99.90
2017-06-10T00:26:41.916Z,99.90
2017-06-10T00:29:09.466Z,99.90
2017-06-10T00:31:37.025Z,99.90
2017-06-10T00:34:04.703Z,99.90
2017-06-10T00:36:32.255Z,99.90
2017-06-10T00:38:59.829Z,99.90
2017-06-10T00:41:27.431Z,99.90
2017-06-10T00:43:54.984Z,99.90
2017-06-10T00:46:22.535Z,99.90
2017-06-10T00:48:50.355Z,99.90
2017-06-10T00:51:17.908Z,99.90
2017-06-10T00:53:45.461Z,99.90
2017-06-10T00:56:13.221Z,99.90
2017-06-10T00:58:40.786Z,99.90
2017-06-10T01:01:08.340Z,99.90
2017-06-10T01:03:36.080Z,99.90
2017-06-10T01:06:03.650Z,99.90
2017-06-10T01:08:31.268Z,99.90
2017-06-10T01:10:59.819Z,99.90
2017-06-10T01:13:27.379Z,99.90
2017-06-10T01:15:54.939Z,99.90
2017-06-10T01:18:22.635Z,99.90
2017-06-10T01:20:50.952Z,99.90
2017-06-10T01:23:18.511Z,99.90
2017-06-10T01:25:46.112Z,99.90
2017-06-10T01:28:13.663Z,99.90
2017-06-10T01:30:41.213Z,99.90
2017-06-10T01:33:08.979Z,99.90
2017-06-10T01:35:36.531Z,99.90
2017-06-10T01:38:04.091Z,99.90
2017-06-10T01:40:31.778Z,99.90
2017-06-10T01:42:59.323Z,99.90
2017-06-10T01:45:26.876Z,99.90
2017-06-10T01:47:54.473Z,99.90
2017-06-10T01:50:22.798Z,99.90
2017-06-10T01:52:50.363Z,99.90
2017-06-10T01:55:18.141Z,99.90
2017-06-10T01:57:45.696Z,99.90
2017-06-10T02:00:13.252Z,99.90
2017-06-10T02:02:40.986Z,99.90
2017-06-10T02:05:08.538Z,99.90
2017-06-10T02:07:36.095Z,99.90
2017-06-10T02:10:03.671Z,99.90
2017-06-10T02:12:31.219Z,99.90
2017-06-10T02:14:58.774Z,99.90
2017-06-10T02:17:26.720Z,99.90
2017-06-10T02:19:54.267Z,99.90
2017-06-10T02:22:22.584Z,99.90
2017-06-10T02:24:50.184Z,99.90
2017-06-10T02:27:17.744Z,99.90
2017-06-10T02:29:45.299Z,99.90
2017-06-10T02:32:12.884Z,99.90
2017-06-10T02:34:41.203Z,99.90
2017-06-10T02:37:08.766Z,99.90
2017-06-10T02:39:36.661Z,99.90
2017-06-10T02:42:04.217Z,99.90
2017-06-10T02:44:31.771Z,99.90
2017-06-10T02:46:59.559Z,99.90
2017-06-10T02:49:27.875Z,99.90
2017-06-10T02:51:55.426Z,99.90
2017-06-10T02:54:23.112Z,99.90
2017-06-10T02:56:50.666Z,99.90
2017-06-10T02:59:18.220Z,99.90
2017-06-10T03:01:46.118Z,99.90
2017-06-10T03:04:13.675Z,99.90
2017-06-10T03:06:41.227Z,99.90
2017-06-10T03:09:08.831Z,99.90
2017-06-10T03:11:36.391Z,99.90
2017-06-10T03:14:04.711Z,99.90
2017-06-10T03:16:32.404Z,99.90
2017-06-10T03:18:59.950Z,99.90
2017-06-10T03:21:27.500Z,99.90
2017-06-10T03:23:55.555Z,99.90
2017-06-10T03:26:23.107Z,99.90
2017-06-10T03:28:50.655Z,99.90
2017-06-10T03:31:18.232Z,99.90
2017-06-10T03:33:45.783Z,99.90
2017-06-10T03:36:13.327Z,99.90
2017-06-10T03:38:40.938Z,99.90
2017-06-10T03:41:08.494Z,99.90
2017-06-10T03:43:36.062Z,99.90
2017-06-10T03:46:03.669Z,99.90
2017-06-10T03:48:31.223Z,99.90
2017-06-10T03:50:58.777Z,99.90
2017-06-10T03:53:26.379Z,99.90
2017-06-10T03:55:53.935Z,99.90
2017-06-10T03:58:21.481Z,99.90
2017-06-10T04:00:49.179Z,99.90
2017-06-10T04:03:16.741Z,99.90
2017-06-10T04:05:44.307Z,99.90
2017-06-10T04:08:12.086Z,99.90
2017-06-10T04:10:39.642Z,99.90
2017-06-10T04:13:07.962Z,99.90
2017-06-10T04:15:35.866Z,99.90
2017-06-10T04:18:03.415Z,99.90
2017-06-10T04:20:30.996Z,99.90
2017-06-10T04:22:59.556Z,99.90
2017-06-10T04:25:27.277Z,99.90
2017-06-10T04:27:54.833Z,99.90
2017-06-10T04:30:22.457Z,99.90
2017-06-10T04:32:50.007Z,99.90
2017-06-10T04:35:17.563Z,99.90
2017-06-10T04:37:45.156Z,99.90
2017-06-10T04:40:12.732Z,99.90
2017-06-10T04:42:40.278Z,99.90
2017-06-10T04:45:08.828Z,99.90
2017-06-10T04:47:36.390Z,99.90
2017-06-10T04:50:03.942Z,99.90
2017-06-10T04:52:31.542Z,99.90
2017-06-10T04:54:59.094Z,99.90
2017-06-10T04:57:27.419Z,99.90
2017-06-10T04:59:55.146Z,99.90
2017-06-10T05:02:22.699Z,99.90
2017-06-10T05:04:51.011Z,99.90
2017-06-10T05:07:18.915Z,99.90
2017-06-10T05:09:46.467Z,99.90
2017-06-10T05:12:14.027Z,99.90
2017-06-10T05:14:41.715Z,99.90
2017-06-10T05:17:10.036Z,99.90
2017-06-10T05:19:37.697Z,99.90
2017-06-10T05:22:05.283Z,99.90
2017-06-10T05:24:32.837Z,99.90
2017-06-10T05:27:00.389Z,99.90
2017-06-10T05:29:28.271Z,99.90
2017-06-10T05:31:55.832Z,99.90
2017-06-10T05:34:23.380Z,99.90
2017-06-10T05:36:51.153Z,99.90
2017-06-10T05:39:18.752Z,99.90
2017-06-10T05:41:46.311Z,99.90
2017-06-10T05:44:13.988Z,99.90
2017-06-10T05:46:41.544Z,99.90
2017-06-10T05:49:09.099Z,99.90
2017-06-10T05:51:37.012Z,99.90
2017-06-10T05:54:04.564Z,99.90
2017-06-10T05:56:32.120Z,99.90
2017-06-10T05:58:59.709Z,99.90
2017-06-10T06:01:27.327Z,99.90
2017-06-10T06:03:54.871Z,99.90
2017-06-10T06:06:22.672Z,99.90
2017-06-10T06:08:50.220Z,99.90
2017-06-10T06:11:17.764Z,99.90
2017-06-10T06:13:45.660Z,99.90
2017-06-10T06:16:13.221Z,99.90
2017-06-10T06:18:40.775Z,99.90
2017-06-10T06:21:08.371Z,99.90
2017-06-10T06:23:36.696Z,99.90
2017-06-10T06:26:04.252Z,99.90
2017-06-10T06:28:32.041Z,99.90
2017-06-10T06:30:59.591Z,99.90
2017-06-10T06:33:27.142Z,99.90
2017-06-10T06:35:54.931Z,99.90
2017-06-10T06:38:22.480Z,99.90
2017-06-10T06:40:50.027Z,99.90
2017-06-10T06:43:17.724Z,99.90
2017-06-10T06:45:46.043Z,99.90
2017-06-10T06:48:13.608Z,99.90
2017-06-10T06:50:41.443Z,99.90
2017-06-10T06:53:08.992Z,99.90
2017-06-10T06:55:37.305Z,99.90
2017-06-10T06:58:05.103Z,99.90
2017-06-10T07:00:32.741Z,99.90
2017-06-10T07:03:00.303Z,99.90
2017-06-10T07:05:28.222Z,99.90
2017-06-10T07:07:56.531Z,99.90
2017-06-10T07:10:24.079Z,99.90
2017-06-10T07:12:51.719Z,99.90
2017-06-10T07:15:20.032Z,99.90
2017-06-10T07:17:47.579Z,99.90
2017-06-10T07:20:15.223Z,99.90
2017-06-10T07:22:43.532Z,99.90
2017-06-10T07:25:11.080Z,99.90
2017-06-10T07:27:38.888Z,99.90
2017-06-10T07:30:06.436Z,99.90
2017-06-10T07:32:33.981Z,99.90
2017-06-10T07:35:01.556Z,99.90
2017-06-10T07:37:29.112Z,99.90
2017-06-10T07:39:56.669Z,99.90
2017-06-10T07:42:24.456Z,99.90
2017-06-10T07:44:51.999Z,99.90
2017-06-10T07:47:19.557Z,99.90
2017-06-10T07:49:47.254Z,99.90
2017-06-10T07:52:14.803Z,99.90
2017-06-10T07:54:43.110Z,99.90
2017-06-10T07:57:10.747Z,99.90
2017-06-10T07:59:39.063Z,99.90
2017-06-10T08:02:06.616Z,99.90
2017-06-10T08:04:34.376Z,99.90
2017-06-10T08:07:01.936Z,99.90
2017-06-10T08:09:29.493Z,99.90
2017-06-10T08:11:57.206Z,99.90
2017-06-10T08:14:24.751Z,99.90
2017-06-10T08:16:52.301Z,99.90
2017-06-10T08:19:20.291Z,99.90
2017-06-10T08:21:47.843Z,99.90
2017-06-10T08:24:15.389Z,99.90
2017-06-10T08:26:42.992Z,99.90
2017-06-10T08:29:11.309Z,99.90
2017-06-10T08:31:38.851Z,99.90
2017-06-10T08:34:06.584Z,99.90
2017-06-10T08:36:34.139Z,99.90
2017-06-10T08:39:01.688Z,99.90
2017-06-10T08:41:29.267Z,99.90
2017-06-10T08:43:57.579Z,99.90
2017-06-10T08:46:25.127Z,99.90
2017-06-10T08:48:52.714Z,99.90
2017-06-10T08:51:20.256Z,99.10
2017-06-10T08:53:47.805Z,98.30
2017-06-10T08:56:15.624Z,98.40
2017-06-10T08:58:43.176Z,97.40
2017-06-10T09:01:10.734Z,96.60
2017-06-10T09:03:38.316Z,97.10
2017-06-10T09:06:06.630Z,97.50
2017-06-10T09:08:34.184Z,97.50
2017-06-10T09:11:01.920Z,97.60
2017-06-10T09:13:29.482Z,95.10
2017-06-10T09:15:57.795Z,95.90
2017-06-10T09:18:25.482Z,95.90
2017-06-10T09:20:53.039Z,95.30
2017-06-10T09:23:20.596Z,95.00
2017-06-10T09:25:48.371Z,94.70
2017-06-10T09:28:15.926Z,95.60
2017-06-10T09:30:43.485Z,95.50
2017-06-10T09:33:11.164Z,94.80
2017-06-10T09:35:38.715Z,94.00
2017-06-10T09:38:06.267Z,94.00
2017-06-10T09:40:33.860Z,93.70
2017-06-10T09:43:02.181Z,91.90
2017-06-10T09:45:29.732Z,91.90
2017-06-10T09:47:57.636Z,90.00
2017-06-10T09:50:25.188Z,90.00
2017-06-10T09:52:52.734Z,88.10
2017-06-10T09:55:20.411Z,90.30
2017-06-10T09:57:47.961Z,89.50
2017-06-10T10:00:16.319Z,84.20
2017-06-10T10:02:43.916Z,84.20
2017-06-10T10:05:11.476Z,86.20
2017-06-10T10:07:39.813Z,89.20
2017-06-10T10:10:07.616Z,89.80
2017-06-10T10:12:35.171Z,90.20
2017-06-10T10:15:02.728Z,90.20
2017-06-10T10:17:30.821Z,89.00
2017-06-10T10:19:59.162Z,83.40
2017-06-10T10:22:26.720Z,83.40
2017-06-10T10:24:54.427Z,86.80
2017-06-10T10:27:22.740Z,85.70
2017-06-10T10:29:50.314Z,85.70
2017-06-10T10:32:18.103Z,84.40
2017-06-10T10:34:45.660Z,84.60
2017-06-10T10:37:13.206Z,82.70
2017-06-10T10:39:40.904Z,80.90
2017-06-10T10:42:09.242Z,84.40
2017-06-10T10:44:36.784Z,84.40
2017-06-10T10:47:04.688Z,82.30
2017-06-10T10:49:32.233Z,80.90
2017-06-10T10:51:59.791Z,80.70
2017-06-10T10:54:27.510Z,80.00
2017-06-10T10:56:55.066Z,77.90
2017-06-10T10:59:22.631Z,79.50
2017-06-10T11:01:50.449Z,80.80
2017-06-10T11:04:17.999Z,80.00
2017-06-10T11:06:45.549Z,80.50
2017-06-10T11:09:13.336Z,77.90
2017-06-10T11:11:40.880Z,80.10
2017-06-10T11:14:08.430Z,80.50
2017-06-10T11:16:36.303Z,78.60
2017-06-10T11:19:03.877Z,79.30
2017-06-10T11:21:31.423Z,80.90
2017-06-10T11:23:59.208Z,79.20
2017-06-10T11:26:26.763Z,79.10
2017-06-10T11:28:54.321Z,80.70
2017-06-10T11:31:21.932Z,81.80
2017-06-10T11:33:49.479Z,78.80
2017-06-10T11:36:17.028Z,80.40
2017-06-10T11:38:44.764Z,80.80
2017-06-10T11:41:12.319Z,77.10
2017-06-10T11:43:39.879Z,77.50
2017-06-10T11:46:07.673Z,77.60
2017-06-10T11:48:35.985Z,74.90
2017-06-10T11:51:03.532Z,74.90
2017-06-10T11:53:31.547Z,76.30
2017-06-10T11:55:59.094Z,76.60
2017-06-10T11:58:26.638Z,76.50
2017-06-10T12:00:54.256Z,78.10
2017-06-10T12:03:22.560Z,77.10
2017-06-10T12:05:50.114Z,77.10
2017-06-10T12:08:17.778Z,75.20
2017-06-10T12:10:45.330Z,76.10
2017-06-10T12:13:12.879Z,74.10
2017-06-10T12:15:40.707Z,72.60
2017-06-10T12:18:08.779Z,76.90
2017-06-10T12:20:36.326Z,74.70
2017-06-10T12:23:03.935Z,77.90
2017-06-10T12:25:32.245Z,69.90
2017-06-10T12:27:59.798Z,69.90
2017-06-10T12:30:27.465Z,70.30
2017-06-10T12:32:55.015Z,71.50
2017-06-10T12:35:23.408Z,72.20
2017-06-10T12:37:51.408Z,74.70
2017-06-10T12:40:18.964Z,74.00
2017-06-10T12:42:46.521Z,72.70
2017-06-10T12:45:14.199Z,71.00
2017-06-10T12:47:41.762Z,73.40
2017-06-10T12:50:09.330Z,68.90
2017-06-10T12:52:37.907Z,67.40
2017-06-10T12:55:05.536Z,67.20
2017-06-10T12:57:33.095Z,69.10
2017-06-10T13:00:00.980Z,69.70
2017-06-10T13:02:28.536Z,69.40
2017-06-10T13:04:56.084Z,69.00
2017-06-10T13:07:23.962Z,69.80
2017-06-10T13:09:51.551Z,66.40
2017-06-10T13:12:19.112Z,67.70
2017-06-10T13:14:47.188Z,67.50
2017-06-10T13:17:14.828Z,66.30
2017-06-10T13:19:43.152Z,71.60
2017-06-10T13:22:10.881Z,70.70
2017-06-10T13:24:39.242Z,69.00
2017-06-10T13:27:06.845Z,69.00
2017-06-10T13:29:34.484Z,69.10
2017-06-10T13:32:02.054Z,68.80
2017-06-10T13:34:29.607Z,68.00
2017-06-10T13:36:57.299Z,67.80
2017-06-10T13:39:24.843Z,67.60
2017-06-10T13:41:52.519Z,68.70
2017-06-10T13:44:20.432Z,66.80
2017-06-10T13:46:48.004Z,66.40
2017-06-10T13:49:16.323Z,67.40
2017-06-10T13:51:44.014Z,67.30
2017-06-10T13:54:11.581Z,66.40
2017-06-10T13:56:39.145Z,67.00
2017-06-10T13:59:06.901Z,66.80
2017-06-10T14:01:34.467Z,65.50
2017-06-10T14:04:02.048Z,64.70
2017-06-10T14:06:30.513Z,61.60
2017-06-10T14:08:58.849Z,59.50
2017-06-10T14:11:26.407Z,59.60
2017-06-10T14:13:54.042Z,60.20
2017-06-10T14:16:21.627Z,59.10
2017-06-10T14:18:49.176Z,61.50
2017-06-10T14:21:16.920Z,62.70
2017-06-10T14:23:44.479Z,62.20
2017-06-10T14:26:12.036Z,61.20
2017-06-10T14:28:39.719Z,63.50
2017-06-10T14:31:07.272Z,63.40
2017-06-10T14:33:34.838Z,63.80
2017-06-10T14:36:02.456Z,63.40
2017-06-10T14:38:30.147Z,61.10
2017-06-10T14:40:57.750Z,60.20
2017-06-10T14:43:25.456Z,61.90
2017-06-10T14:45:53.021Z,60.80
2017-06-10T14:48:20.587Z,59.50
2017-06-10T14:50:48.180Z,59.70
2017-06-10T14:53:15.796Z,62.00
2017-06-10T14:55:43.348Z,65.30
2017-06-10T14:58:12.475Z,63.80
2017-06-10T15:00:40.033Z,63.80
2017-06-10T15:03:07.584Z,65.90
2017-06-10T15:05:35.431Z,64.50
2017-06-10T15:08:03.117Z,63.70
2017-06-10T15:10:30.729Z,62.30
2017-06-10T15:12:58.512Z,61.80
2017-06-10T15:15:26.850Z,63.00
2017-06-10T15:17:54.420Z,62.90
2017-06-10T15:20:22.259Z,62.60
2017-06-10T15:22:49.815Z,64.10
2017-06-10T15:25:17.384Z,63.90
2017-06-10T15:27:45.108Z,60.80
2017-06-10T15:30:12.700Z,66.70
2017-06-10T15:32:40.253Z,64.90
2017-06-10T15:35:08.050Z,62.10
2017-06-10T15:37:35.831Z,64.10
2017-06-10T15:40:03.415Z,63.20
2017-06-10T15:42:31.354Z,63.20
2017-06-10T15:44:58.905Z,63.70
2017-06-10T15:47:26.459Z,63.50
2017-06-10T15:49:54.069Z,62.10
2017-06-10T15:52:21.625Z,62.60
2017-06-10T15:54:49.191Z,61.20
2017-06-10T15:57:16.781Z,61.30
2017-06-10T15:59:44.330Z,63.20
2017-06-10T16:02:11.923Z,61.90
2017-06-10T16:04:39.963Z,61.70
2017-06-10T16:07:07.517Z,61.80
2017-06-10T16:09:35.127Z,62.80
2017-06-10T16:12:02.842Z,63.50
2017-06-10T16:14:30.471Z,65.10
2017-06-10T16:16:58.084Z,64.90
2017-06-10T16:19:25.788Z,63.70
2017-06-10T16:21:53.353Z,64.00
2017-06-10T16:24:20.940Z,64.70
2017-06-10T16:26:48.559Z,64.80
2017-06-10T16:29:16.126Z,65.70
2017-06-10T16:31:44.463Z,67.30
2017-06-10T16:34:12.176Z,67.10
2017-06-10T16:36:39.736Z,66.60
2017-06-10T16:39:07.579Z,67.90
2017-06-10T16:41:35.215Z,66.40
2017-06-10T16:44:02.788Z,68.50
2017-06-10T16:46:30.341Z,66.00
2017-06-10T16:48:58.015Z,66.10
2017-06-10T16:51:25.594Z,67.40
2017-06-10T16:53:53.144Z,70.00
2017-06-10T16:56:20.876Z,72.60
2017-06-10T16:58:48.430Z,69.30
2017-06-10T17:01:16.010Z,68.40
2017-06-10T17:03:43.784Z,68.70
2017-06-10T17:06:11.458Z,68.10
2017-06-10T17:08:39.963Z,67.40
2017-06-10T17:11:07.646Z,70.20
2017-06-10T17:13:35.202Z,69.90
2017-06-10T17:16:02.753Z,73.10
2017-06-10T17:18:30.431Z,71.00
2017-06-10T17:20:57.981Z,70.70
2017-06-10T17:23:25.614Z,70.90
2017-06-10T17:25:53.332Z,71.20
2017-06-10T17:28:20.948Z,71.20
2017-06-10T17:30:48.502Z,72.90
2017-06-10T17:33:16.185Z,73.50
2017-06-10T17:35:43.731Z,73.60
2017-06-10T17:38:11.291Z,73.20
2017-06-10T17:40:39.092Z,75.10
2017-06-10T17:43:06.663Z,73.80
2017-06-10T17:45:34.997Z,74.90
2017-06-10T17:48:02.629Z,74.90
2017-06-10T17:50:30.958Z,73.90
2017-06-10T17:52:58.525Z,73.80
2017-06-10T17:55:26.219Z,74.20
2017-06-10T17:57:54.579Z,76.00
2017-06-10T18:00:22.144Z,76.00
2017-06-10T18:02:49.888Z,78.20
2017-06-10T18:05:17.453Z,79.20
2017-06-10T18:07:45.063Z,80.70
2017-06-10T18:10:13.083Z,82.90
2017-06-10T18:12:40.667Z,84.60
2017-06-10T18:15:09.001Z,84.90
2017-06-10T18:17:36.588Z,84.90
2017-06-10T18:20:04.141Z,86.70
2017-06-10T18:22:31.712Z,86.80
2017-06-10T18:25:05.313Z,89.10
2017-06-10T18:27:32.909Z,89.50
2017-06-10T18:30:00.642Z,90.00
2017-06-10T18:32:28.239Z,90.30
2017-06-10T18:34:55.800Z,90.70
2017-06-10T18:37:23.362Z,90.40
2017-06-10T18:39:51.020Z,90.50
2017-06-10T18:42:18.625Z,90.90
2017-06-10T18:44:46.223Z,91.40
2017-06-10T18:47:14.057Z,91.50
2017-06-10T18:49:41.622Z,91.80
2017-06-10T18:52:09.950Z,92.10
2017-06-10T18:54:37.569Z,92.10
2017-06-10T18:57:05.136Z,91.70
2017-06-10T18:59:32.699Z,91.30
2017-06-10T19:02:00.458Z,92.40
2017-06-10T19:04:28.028Z,92.90
2017-06-10T19:06:55.590Z,93.40
2017-06-10T19:09:23.288Z,93.80
2017-06-10T19:11:50.871Z,94.20
2017-06-10T19:14:18.432Z,94.20
2017-06-10T19:16:47.225Z,94.80
2017-06-10T19:19:15.567Z,95.10
2017-06-10T19:21:43.150Z,95.00
2017-06-10T19:24:10.763Z,95.20
2017-06-10T19:26:38.340Z,95.20
2017-06-10T19:29:05.912Z,95.40
2017-06-10T19:31:33.799Z,95.20
2017-06-10T19:34:01.387Z,95.90
2017-06-10T19:36:28.990Z,95.30
2017-06-10T19:38:56.612Z,95.50
2017-06-10T19:41:24.173Z,95.70
2017-06-10T19:43:51.745Z,96.10
2017-06-10T19:46:19.689Z,96.10
2017-06-10T19:48:48.019Z,95.80
2017-06-10T19:51:15.593Z,95.70
2017-06-10T19:53:43.327Z,95.90
2017-06-10T19:56:10.903Z,96.40
2017-06-10T19:58:38.475Z,97.00
2017-06-10T20:01:06.088Z,97.30
2017-06-10T20:03:33.660Z,97.90
2017-06-10T20:06:01.239Z,98.40
2017-06-10T20:08:28.880Z,98.40
2017-06-10T20:10:56.447Z,98.60
2017-06-10T20:13:24.045Z,98.70
2017-06-10T20:15:51.848Z,98.80
2017-06-10T20:18:20.228Z,98.80
2017-06-10T20:20:47.813Z,98.90
2017-06-10T20:23:15.712Z,98.90
2017-06-10T20:25:43.277Z,98.60
2017-06-10T20:28:10.883Z,98.60
2017-06-10T20:30:38.585Z,98.80
2017-06-10T20:33:06.147Z,98.70
2017-06-10T20:35:33.706Z,98.70
2017-06-10T20:38:01.337Z,98.90
2017-06-10T20:40:28.904Z,99.20
2017-06-10T20:42:56.483Z,99.70
2017-06-10T20:45:24.099Z,99.60
2017-06-10T20:47:51.673Z,99.80
2017-06-10T20:50:19.313Z,99.80
2017-06-10T20:52:47.250Z,99.90
2017-06-10T20:55:15.576Z,99.90
2017-06-10T20:57:43.186Z,99.80
2017-06-10T21:00:10.876Z,99.90
2017-06-10T21:02:38.438Z,99.90
2017-06-10T21:05:06.027Z,99.80
2017-06-10T21:07:34.037Z,99.90
2017-06-10T21:10:02.375Z,99.90
2017-06-10T21:12:29.939Z,99.90
2017-06-10T21:14:57.564Z,99.90
2017-06-10T21:17:25.131Z,99.90
2017-06-10T21:19:52.701Z,99.90
2017-06-10T21:22:20.656Z,99.90
2017-06-10T21:24:48.224Z,99.90
2017-06-10T21:27:15.788Z,99.90
2017-06-10T21:29:44.210Z,99.90
2017-06-10T21:32:11.815Z,99.90
2017-06-10T21:34:39.387Z,99.90
2017-06-10T21:37:07.142Z,99.90
2017-06-10T21:39:34.709Z,99.90
2017-06-10T21:42:02.275Z,99.90
2017-06-10T21:44:29.995Z,99.90
2017-06-10T21:46:58.323Z,99.90
2017-06-10T21:49:25.891Z,99.90
2017-06-10T21:51:53.799Z,99.90
2017-06-10T21:54:22.128Z,99.90
2017-06-10T21:56:49.696Z,99.90
2017-06-10T21:59:17.625Z,99.90
2017-06-10T22:01:45.214Z,99.90
2017-06-10T22:04:12.785Z,99.90
2017-06-10T22:06:40.496Z,99.90
2017-06-10T22:09:08.067Z,99.90
2017-06-10T22:11:35.643Z,99.90
2017-06-10T22:14:03.351Z,99.90
2017-06-10T22:16:30.962Z,99.90
2017-06-10T22:18:58.533Z,99.90
2017-06-10T22:21:26.179Z,99.90
2017-06-10T22:23:53.759Z,99.90
2017-06-10T22:26:21.323Z,99.90
2017-06-10T22:28:48.932Z,99.90
2017-06-10T22:31:16.499Z,99.90
2017-06-10T22:33:44.056Z,99.90
2017-06-10T22:36:11.956Z,99.90
2017-06-10T22:38:39.524Z,99.90
2017-06-10T22:41:07.092Z,99.90
2017-06-10T22:43:34.709Z,99.90
2017-06-10T22:46:02.278Z,99.90
2017-06-10T22:48:29.855Z,99.90
2017-06-10T22:50:57.492Z,99.90
2017-06-10T22:53:25.057Z,99.90
2017-06-10T22:55:52.626Z,99.90
2017-06-10T22:58:21.052Z,99.90
2017-06-10T23:00:48.612Z,99.90
2017-06-10T23:03:16.179Z,99.90
2017-06-10T23:05:44.633Z,99.90
2017-06-10T23:08:12.207Z,99.90
2017-06-10T23:10:39.768Z,99.90
2017-06-10T23:13:07.355Z,99.90
2017-06-10T23:15:35.011Z,99.90
2017-06-10T23:18:02.565Z,99.90
2017-06-10T23:20:30.957Z,99.90
2017-06-10T23:22:58.529Z,99.90
2017-06-10T23:25:26.087Z,99.90
2017-06-10T23:27:53.883Z,99.90
2017-06-10T23:30:21.441Z,99.90
2017-06-10T23:32:49.000Z,99.90
2017-06-10T23:35:16.611Z,99.90
2017-06-10T23:37:44.948Z,99.90
2017-06-10T23:40:12.511Z,99.90
2017-06-10T23:42:40.120Z,99.90
2017-06-10T23:45:07.684Z,99.90
2017-06-10T23:47:35.249Z,99.90
2017-06-10T23:50:03.000Z,99.90
2017-06-10T23:52:30.564Z,99.90
2017-06-10T23:54:58.134Z,99.90
2017-06-10T23:57:26.337Z,99.90
2017-06-10T23:59:53.894Z,99.90
